sensor_id;sensor_type;location;lat;lon;timestamp;P1;durP1;ratioP1;P2;durP2;ratioP2
54883;SDS011;40776;52.880;6.016;2022-11-20T00:00:49;33.67;;;15.77;;
54883;SDS011;40776;52.880;6.016;2022-11-20T00:03:15;35.03;;;16.40;;
54883;SDS011;40776;52.880;6.016;2022-11-20T00:05:42;32.50;;;15.13;;
54883;SDS011;40776;52.880;6.016;2022-11-20T00:08:08;30.55;;;14.52;;
54883;SDS011;40776;52.880;6.016;2022-11-20T00:10:38;33.50;;;16.08;;
54883;SDS011;40776;52.880;6.016;2022-11-20T00:13:04;33.17;;;14.05;;
54883;SDS011;40776;52.880;6.016;2022-11-20T00:15:30;25.50;;;13.32;;
54883;SDS011;40776;52.880;6.016;2022-11-20T00:17:56;26.80;;;12.88;;
54883;SDS011;40776;52.880;6.016;2022-11-20T00:20:22;29.33;;;14.35;;
54883;SDS011;40776;52.880;6.016;2022-11-20T00:22:49;27.02;;;13.50;;
54883;SDS011;40776;52.880;6.016;2022-11-20T00:25:15;25.50;;;12.75;;
54883;SDS011;40776;52.880;6.016;2022-11-20T00:27:41;26.42;;;13.50;;
54883;SDS011;40776;52.880;6.016;2022-11-20T00:30:07;26.05;;;12.73;;
54883;SDS011;40776;52.880;6.016;2022-11-20T00:32:33;24.65;;;13.43;;
54883;SDS011;40776;52.880;6.016;2022-11-20T00:34:59;24.63;;;13.45;;
54883;SDS011;40776;52.880;6.016;2022-11-20T00:37:26;25.30;;;13.43;;
54883;SDS011;40776;52.880;6.016;2022-11-20T00:39:52;26.05;;;13.05;;
54883;SDS011;40776;52.880;6.016;2022-11-20T00:42:18;24.45;;;12.85;;
54883;SDS011;40776;52.880;6.016;2022-11-20T00:44:44;24.38;;;13.10;;
54883;SDS011;40776;52.880;6.016;2022-11-20T00:47:10;24.88;;;13.38;;
54883;SDS011;40776;52.880;6.016;2022-11-20T00:49:36;23.02;;;11.35;;
54883;SDS011;40776;52.880;6.016;2022-11-20T00:52:02;24.45;;;12.00;;
54883;SDS011;40776;52.880;6.016;2022-11-20T00:54:28;24.00;;;12.93;;
54883;SDS011;40776;52.880;6.016;2022-11-20T00:56:54;26.30;;;13.43;;
54883;SDS011;40776;52.880;6.016;2022-11-20T00:59:20;25.10;;;12.55;;
54883;SDS011;40776;52.880;6.016;2022-11-20T01:01:46;29.95;;;14.05;;
54883;SDS011;40776;52.880;6.016;2022-11-20T01:04:12;28.95;;;13.52;;
54883;SDS011;40776;52.880;6.016;2022-11-20T01:06:39;29.05;;;13.43;;
54883;SDS011;40776;52.880;6.016;2022-11-20T01:09:10;31.40;;;14.68;;
54883;SDS011;40776;52.880;6.016;2022-11-20T01:11:37;28.02;;;13.40;;
54883;SDS011;40776;52.880;6.016;2022-11-20T01:14:04;24.20;;;13.00;;
54883;SDS011;40776;52.880;6.016;2022-11-20T01:16:31;24.65;;;12.07;;
54883;SDS011;40776;52.880;6.016;2022-11-20T01:18:59;29.85;;;15.15;;
54883;SDS011;40776;52.880;6.016;2022-11-20T01:21:27;27.00;;;13.88;;
54883;SDS011;40776;52.880;6.016;2022-11-20T01:23:54;28.13;;;14.65;;
54883;SDS011;40776;52.880;6.016;2022-11-20T01:26:21;27.02;;;13.82;;
54883;SDS011;40776;52.880;6.016;2022-11-20T01:28:48;27.42;;;14.23;;
54883;SDS011;40776;52.880;6.016;2022-11-20T01:31:22;29.65;;;13.85;;
54883;SDS011;40776;52.880;6.016;2022-11-20T01:33:49;24.75;;;14.55;;
54883;SDS011;40776;52.880;6.016;2022-11-20T01:36:16;31.90;;;14.27;;
54883;SDS011;40776;52.880;6.016;2022-11-20T01:38:42;27.08;;;12.98;;
54883;SDS011;40776;52.880;6.016;2022-11-20T01:41:09;28.67;;;14.18;;
54883;SDS011;40776;52.880;6.016;2022-11-20T01:43:35;26.90;;;13.68;;
54883;SDS011;40776;52.880;6.016;2022-11-20T01:48:44;25.45;;;14.10;;
54883;SDS011;40776;52.880;6.016;2022-11-20T01:51:32;25.48;;;12.90;;
54883;SDS011;40776;52.880;6.016;2022-11-20T01:54:00;27.83;;;13.35;;
54883;SDS011;40776;52.880;6.016;2022-11-20T01:56:27;26.90;;;13.95;;
54883;SDS011;40776;52.880;6.016;2022-11-20T01:58:55;28.08;;;13.35;;
54883;SDS011;40776;52.880;6.016;2022-11-20T02:01:22;25.65;;;13.20;;
54883;SDS011;40776;52.880;6.016;2022-11-20T02:03:48;28.20;;;14.25;;
54883;SDS011;40776;52.880;6.016;2022-11-20T02:06:31;26.33;;;13.88;;
54883;SDS011;40776;52.880;6.016;2022-11-20T02:08:59;33.65;;;17.17;;
54883;SDS011;40776;52.880;6.016;2022-11-20T02:11:25;27.10;;;14.18;;
54883;SDS011;40776;52.880;6.016;2022-11-20T02:13:51;27.73;;;14.68;;
54883;SDS011;40776;52.880;6.016;2022-11-20T02:18:46;28.50;;;16.13;;
54883;SDS011;40776;52.880;6.016;2022-11-20T02:23:39;29.33;;;15.80;;
54883;SDS011;40776;52.880;6.016;2022-11-20T02:28:36;30.50;;;16.45;;
54883;SDS011;40776;52.880;6.016;2022-11-20T02:31:03;35.92;;;18.25;;
54883;SDS011;40776;52.880;6.016;2022-11-20T02:33:29;38.50;;;19.75;;
54883;SDS011;40776;52.880;6.016;2022-11-20T02:35:55;29.30;;;17.17;;
54883;SDS011;40776;52.880;6.016;2022-11-20T02:38:21;36.85;;;19.20;;
54883;SDS011;40776;52.880;6.016;2022-11-20T02:40:47;32.05;;;17.48;;
54883;SDS011;40776;52.880;6.016;2022-11-20T02:43:15;31.30;;;16.98;;
54883;SDS011;40776;52.880;6.016;2022-11-20T02:45:41;25.25;;;15.48;;
54883;SDS011;40776;52.880;6.016;2022-11-20T02:48:07;28.10;;;15.55;;
54883;SDS011;40776;52.880;6.016;2022-11-20T02:50:33;27.88;;;15.27;;
54883;SDS011;40776;52.880;6.016;2022-11-20T02:53:01;28.65;;;16.02;;
54883;SDS011;40776;52.880;6.016;2022-11-20T02:55:27;32.53;;;16.23;;
54883;SDS011;40776;52.880;6.016;2022-11-20T02:57:53;28.25;;;16.77;;
54883;SDS011;40776;52.880;6.016;2022-11-20T03:00:19;30.92;;;16.80;;
54883;SDS011;40776;52.880;6.016;2022-11-20T03:02:45;27.83;;;15.68;;
54883;SDS011;40776;52.880;6.016;2022-11-20T03:05:11;32.42;;;16.92;;
54883;SDS011;40776;52.880;6.016;2022-11-20T03:07:37;28.83;;;15.23;;
54883;SDS011;40776;52.880;6.016;2022-11-20T03:10:04;30.00;;;16.58;;
54883;SDS011;40776;52.880;6.016;2022-11-20T03:12:30;31.33;;;16.13;;
54883;SDS011;40776;52.880;6.016;2022-11-20T03:14:56;29.23;;;16.35;;
54883;SDS011;40776;52.880;6.016;2022-11-20T03:17:22;32.47;;;15.23;;
54883;SDS011;40776;52.880;6.016;2022-11-20T03:19:48;35.17;;;16.42;;
54883;SDS011;40776;52.880;6.016;2022-11-20T03:22:14;28.83;;;15.63;;
54883;SDS011;40776;52.880;6.016;2022-11-20T03:24:40;29.17;;;15.13;;
54883;SDS011;40776;52.880;6.016;2022-11-20T03:27:06;32.47;;;15.68;;
54883;SDS011;40776;52.880;6.016;2022-11-20T03:29:32;28.98;;;15.52;;
54883;SDS011;40776;52.880;6.016;2022-11-20T03:31:58;27.35;;;15.48;;
54883;SDS011;40776;52.880;6.016;2022-11-20T03:34:25;28.00;;;14.82;;
54883;SDS011;40776;52.880;6.016;2022-11-20T03:36:50;29.02;;;16.20;;
54883;SDS011;40776;52.880;6.016;2022-11-20T03:39:16;27.77;;;14.02;;
54883;SDS011;40776;52.880;6.016;2022-11-20T03:41:43;29.50;;;15.95;;
54883;SDS011;40776;52.880;6.016;2022-11-20T03:44:10;33.55;;;17.38;;
54883;SDS011;40776;52.880;6.016;2022-11-20T03:46:36;30.13;;;14.95;;
54883;SDS011;40776;52.880;6.016;2022-11-20T03:49:02;28.88;;;14.70;;
54883;SDS011;40776;52.880;6.016;2022-11-20T03:51:29;29.08;;;14.93;;
54883;SDS011;40776;52.880;6.016;2022-11-20T03:53:57;29.23;;;15.80;;
54883;SDS011;40776;52.880;6.016;2022-11-20T03:56:24;28.20;;;14.40;;
54883;SDS011;40776;52.880;6.016;2022-11-20T03:58:50;24.15;;;13.50;;
54883;SDS011;40776;52.880;6.016;2022-11-20T04:01:17;29.02;;;15.02;;
54883;SDS011;40776;52.880;6.016;2022-11-20T04:03:44;29.70;;;14.02;;
54883;SDS011;40776;52.880;6.016;2022-11-20T04:06:11;25.63;;;14.18;;
54883;SDS011;40776;52.880;6.016;2022-11-20T04:08:38;31.02;;;15.52;;
54883;SDS011;40776;52.880;6.016;2022-11-20T04:11:08;25.58;;;14.75;;
54883;SDS011;40776;52.880;6.016;2022-11-20T04:13:34;31.93;;;15.40;;
54883;SDS011;40776;52.880;6.016;2022-11-20T04:16:00;27.88;;;13.93;;
54883;SDS011;40776;52.880;6.016;2022-11-20T04:18:26;25.90;;;13.85;;
54883;SDS011;40776;52.880;6.016;2022-11-20T04:20:52;24.35;;;13.57;;
54883;SDS011;40776;52.880;6.016;2022-11-20T04:23:18;25.92;;;13.73;;
54883;SDS011;40776;52.880;6.016;2022-11-20T04:25:44;24.23;;;13.68;;
54883;SDS011;40776;52.880;6.016;2022-11-20T04:28:10;22.33;;;12.93;;
54883;SDS011;40776;52.880;6.016;2022-11-20T04:30:36;24.95;;;12.38;;
54883;SDS011;40776;52.880;6.016;2022-11-20T04:33:02;25.25;;;12.55;;
54883;SDS011;40776;52.880;6.016;2022-11-20T04:37:57;23.30;;;11.73;;
54883;SDS011;40776;52.880;6.016;2022-11-20T04:40:23;23.42;;;12.07;;
54883;SDS011;40776;52.880;6.016;2022-11-20T04:42:49;20.08;;;10.95;;
54883;SDS011;40776;52.880;6.016;2022-11-20T04:45:15;20.80;;;11.23;;
54883;SDS011;40776;52.880;6.016;2022-11-20T04:47:41;18.98;;;10.27;;
54883;SDS011;40776;52.880;6.016;2022-11-20T04:50:07;23.70;;;13.73;;
54883;SDS011;40776;52.880;6.016;2022-11-20T04:52:33;21.27;;;11.82;;
54883;SDS011;40776;52.880;6.016;2022-11-20T04:55:00;21.65;;;11.25;;
54883;SDS011;40776;52.880;6.016;2022-11-20T04:57:26;21.80;;;11.80;;
54883;SDS011;40776;52.880;6.016;2022-11-20T04:59:52;23.10;;;12.80;;
54883;SDS011;40776;52.880;6.016;2022-11-20T05:02:18;25.88;;;12.52;;
54883;SDS011;40776;52.880;6.016;2022-11-20T05:04:44;20.90;;;11.38;;
54883;SDS011;40776;52.880;6.016;2022-11-20T05:07:10;25.25;;;13.07;;
54883;SDS011;40776;52.880;6.016;2022-11-20T05:09:36;24.10;;;12.13;;
54883;SDS011;40776;52.880;6.016;2022-11-20T05:12:02;22.98;;;12.57;;
54883;SDS011;40776;52.880;6.016;2022-11-20T05:14:28;22.88;;;12.25;;
54883;SDS011;40776;52.880;6.016;2022-11-20T05:16:54;25.50;;;13.05;;
54883;SDS011;40776;52.880;6.016;2022-11-20T05:19:20;26.80;;;13.38;;
54883;SDS011;40776;52.880;6.016;2022-11-20T05:21:46;24.55;;;12.32;;
54883;SDS011;40776;52.880;6.016;2022-11-20T05:24:12;23.30;;;12.48;;
54883;SDS011;40776;52.880;6.016;2022-11-20T05:26:38;22.15;;;12.25;;
54883;SDS011;40776;52.880;6.016;2022-11-20T05:29:04;22.85;;;12.50;;
54883;SDS011;40776;52.880;6.016;2022-11-20T05:31:30;23.38;;;12.45;;
54883;SDS011;40776;52.880;6.016;2022-11-20T05:33:56;25.35;;;12.63;;
54883;SDS011;40776;52.880;6.016;2022-11-20T05:36:23;23.38;;;12.13;;
54883;SDS011;40776;52.880;6.016;2022-11-20T05:38:49;20.98;;;12.45;;
54883;SDS011;40776;52.880;6.016;2022-11-20T05:41:18;23.88;;;13.35;;
54883;SDS011;40776;52.880;6.016;2022-11-20T05:43:45;25.55;;;12.32;;
54883;SDS011;40776;52.880;6.016;2022-11-20T05:46:12;23.67;;;11.80;;
54883;SDS011;40776;52.880;6.016;2022-11-20T05:48:39;23.90;;;12.15;;
54883;SDS011;40776;52.880;6.016;2022-11-20T05:51:07;21.20;;;11.48;;
54883;SDS011;40776;52.880;6.016;2022-11-20T05:53:34;25.48;;;12.82;;
54883;SDS011;40776;52.880;6.016;2022-11-20T05:56:04;22.52;;;11.63;;
54883;SDS011;40776;52.880;6.016;2022-11-20T05:58:31;25.55;;;13.65;;
54883;SDS011;40776;52.880;6.016;2022-11-20T06:03:32;19.58;;;11.48;;
54883;SDS011;40776;52.880;6.016;2022-11-20T06:05:59;21.55;;;10.93;;
54883;SDS011;40776;52.880;6.016;2022-11-20T06:08:25;21.65;;;11.18;;
54883;SDS011;40776;52.880;6.016;2022-11-20T06:10:51;19.02;;;10.60;;
54883;SDS011;40776;52.880;6.016;2022-11-20T06:13:17;23.17;;;12.10;;
54883;SDS011;40776;52.880;6.016;2022-11-20T06:15:48;23.00;;;11.65;;
54883;SDS011;40776;52.880;6.016;2022-11-20T06:18:14;22.83;;;12.00;;
54883;SDS011;40776;52.880;6.016;2022-11-20T06:20:40;21.80;;;11.90;;
54883;SDS011;40776;52.880;6.016;2022-11-20T06:23:06;21.33;;;10.77;;
54883;SDS011;40776;52.880;6.016;2022-11-20T06:25:32;22.00;;;11.25;;
54883;SDS011;40776;52.880;6.016;2022-11-20T06:27:58;24.88;;;11.50;;
54883;SDS011;40776;52.880;6.016;2022-11-20T06:30:24;21.77;;;12.30;;
54883;SDS011;40776;52.880;6.016;2022-11-20T06:32:50;22.52;;;12.45;;
54883;SDS011;40776;52.880;6.016;2022-11-20T06:35:16;23.65;;;12.27;;
54883;SDS011;40776;52.880;6.016;2022-11-20T06:37:42;21.08;;;11.90;;
54883;SDS011;40776;52.880;6.016;2022-11-20T06:40:08;18.73;;;10.27;;
54883;SDS011;40776;52.880;6.016;2022-11-20T06:42:35;21.52;;;12.35;;
54883;SDS011;40776;52.880;6.016;2022-11-20T06:45:01;28.83;;;12.60;;
54883;SDS011;40776;52.880;6.016;2022-11-20T06:47:27;22.05;;;12.18;;
54883;SDS011;40776;52.880;6.016;2022-11-20T06:49:53;20.92;;;11.82;;
54883;SDS011;40776;52.880;6.016;2022-11-20T06:52:19;24.42;;;11.35;;
54883;SDS011;40776;52.880;6.016;2022-11-20T06:54:45;23.13;;;11.95;;
54883;SDS011;40776;52.880;6.016;2022-11-20T06:57:11;19.50;;;10.88;;
54883;SDS011;40776;52.880;6.016;2022-11-20T06:59:37;23.80;;;12.57;;
54883;SDS011;40776;52.880;6.016;2022-11-20T07:02:03;23.15;;;12.18;;
54883;SDS011;40776;52.880;6.016;2022-11-20T07:04:29;28.20;;;12.13;;
54883;SDS011;40776;52.880;6.016;2022-11-20T07:06:55;20.65;;;11.95;;
54883;SDS011;40776;52.880;6.016;2022-11-20T07:09:21;21.17;;;11.52;;
54883;SDS011;40776;52.880;6.016;2022-11-20T07:11:47;23.65;;;11.82;;
54883;SDS011;40776;52.880;6.016;2022-11-20T07:14:13;22.25;;;11.50;;
54883;SDS011;40776;52.880;6.016;2022-11-20T07:16:39;21.48;;;11.85;;
54883;SDS011;40776;52.880;6.016;2022-11-20T07:19:05;22.73;;;11.93;;
54883;SDS011;40776;52.880;6.016;2022-11-20T07:21:31;20.77;;;11.65;;
54883;SDS011;40776;52.880;6.016;2022-11-20T07:23:57;22.58;;;11.82;;
54883;SDS011;40776;52.880;6.016;2022-11-20T07:26:23;20.60;;;11.13;;
54883;SDS011;40776;52.880;6.016;2022-11-20T07:28:49;21.33;;;10.70;;
54883;SDS011;40776;52.880;6.016;2022-11-20T07:31:16;19.50;;;11.43;;
54883;SDS011;40776;52.880;6.016;2022-11-20T07:33:42;20.52;;;11.10;;
54883;SDS011;40776;52.880;6.016;2022-11-20T07:36:08;22.17;;;10.82;;
54883;SDS011;40776;52.880;6.016;2022-11-20T07:38:34;22.10;;;11.35;;
54883;SDS011;40776;52.880;6.016;2022-11-20T07:41:00;20.83;;;11.05;;
54883;SDS011;40776;52.880;6.016;2022-11-20T07:43:26;20.25;;;10.57;;
54883;SDS011;40776;52.880;6.016;2022-11-20T07:45:56;23.45;;;11.57;;
54883;SDS011;40776;52.880;6.016;2022-11-20T07:48:22;27.88;;;11.80;;
54883;SDS011;40776;52.880;6.016;2022-11-20T07:50:48;21.92;;;11.55;;
54883;SDS011;40776;52.880;6.016;2022-11-20T07:53:14;19.52;;;10.32;;
54883;SDS011;40776;52.880;6.016;2022-11-20T07:58:11;23.58;;;11.57;;
54883;SDS011;40776;52.880;6.016;2022-11-20T08:00:37;23.02;;;13.02;;
54883;SDS011;40776;52.880;6.016;2022-11-20T08:03:04;22.15;;;11.35;;
54883;SDS011;40776;52.880;6.016;2022-11-20T08:05:30;19.77;;;10.77;;
54883;SDS011;40776;52.880;6.016;2022-11-20T08:07:56;21.48;;;10.95;;
54883;SDS011;40776;52.880;6.016;2022-11-20T08:10:22;18.88;;;10.38;;
54883;SDS011;40776;52.880;6.016;2022-11-20T08:12:49;22.75;;;11.80;;
54883;SDS011;40776;52.880;6.016;2022-11-20T08:15:34;22.50;;;11.73;;
54883;SDS011;40776;52.880;6.016;2022-11-20T08:18:05;21.60;;;10.88;;
54883;SDS011;40776;52.880;6.016;2022-11-20T08:23:01;23.23;;;11.48;;
54883;SDS011;40776;52.880;6.016;2022-11-20T08:25:30;22.88;;;11.85;;
54883;SDS011;40776;52.880;6.016;2022-11-20T08:27:57;23.35;;;12.38;;
54883;SDS011;40776;52.880;6.016;2022-11-20T08:30:23;20.77;;;11.27;;
54883;SDS011;40776;52.880;6.016;2022-11-20T08:32:49;20.25;;;10.90;;
54883;SDS011;40776;52.880;6.016;2022-11-20T08:35:18;23.40;;;12.73;;
54883;SDS011;40776;52.880;6.016;2022-11-20T08:37:48;23.58;;;12.38;;
54883;SDS011;40776;52.880;6.016;2022-11-20T08:40:14;27.42;;;13.80;;
54883;SDS011;40776;52.880;6.016;2022-11-20T08:42:47;27.27;;;13.82;;
54883;SDS011;40776;52.880;6.016;2022-11-20T08:45:13;25.80;;;13.65;;
54883;SDS011;40776;52.880;6.016;2022-11-20T08:47:39;25.40;;;13.40;;
54883;SDS011;40776;52.880;6.016;2022-11-20T08:50:06;23.00;;;12.30;;
54883;SDS011;40776;52.880;6.016;2022-11-20T08:52:32;22.10;;;12.55;;
54883;SDS011;40776;52.880;6.016;2022-11-20T08:54:58;21.55;;;11.18;;
54883;SDS011;40776;52.880;6.016;2022-11-20T08:57:25;23.73;;;11.68;;
54883;SDS011;40776;52.880;6.016;2022-11-20T08:59:51;26.13;;;12.15;;
54883;SDS011;40776;52.880;6.016;2022-11-20T09:02:17;22.95;;;12.07;;
54883;SDS011;40776;52.880;6.016;2022-11-20T09:04:44;23.58;;;12.02;;
54883;SDS011;40776;52.880;6.016;2022-11-20T09:07:10;22.35;;;11.70;;
54883;SDS011;40776;52.880;6.016;2022-11-20T09:09:36;21.42;;;10.93;;
54883;SDS011;40776;52.880;6.016;2022-11-20T09:12:02;21.30;;;12.13;;
54883;SDS011;40776;52.880;6.016;2022-11-20T09:14:28;22.55;;;12.27;;
54883;SDS011;40776;52.880;6.016;2022-11-20T09:16:55;28.02;;;11.95;;
54883;SDS011;40776;52.880;6.016;2022-11-20T09:19:23;22.58;;;11.32;;
54883;SDS011;40776;52.880;6.016;2022-11-20T09:21:49;21.42;;;12.25;;
54883;SDS011;40776;52.880;6.016;2022-11-20T09:24:15;22.70;;;11.50;;
54883;SDS011;40776;52.880;6.016;2022-11-20T09:26:41;19.35;;;10.55;;
54883;SDS011;40776;52.880;6.016;2022-11-20T09:29:07;26.50;;;12.18;;
54883;SDS011;40776;52.880;6.016;2022-11-20T09:31:36;20.95;;;11.52;;
54883;SDS011;40776;52.880;6.016;2022-11-20T09:34:02;20.17;;;11.48;;
54883;SDS011;40776;52.880;6.016;2022-11-20T09:36:28;18.88;;;11.70;;
54883;SDS011;40776;52.880;6.016;2022-11-20T09:38:54;21.35;;;11.75;;
54883;SDS011;40776;52.880;6.016;2022-11-20T09:47:11;20.60;;;11.32;;
54883;SDS011;40776;52.880;6.016;2022-11-20T09:49:46;20.52;;;10.73;;
54883;SDS011;40776;52.880;6.016;2022-11-20T09:52:22;17.58;;;9.38;;
54883;SDS011;40776;52.880;6.016;2022-11-20T09:54:51;23.75;;;10.95;;
54883;SDS011;40776;52.880;6.016;2022-11-20T09:57:18;16.42;;;9.70;;
54883;SDS011;40776;52.880;6.016;2022-11-20T09:59:49;16.85;;;9.30;;
54883;SDS011;40776;52.880;6.016;2022-11-20T10:04:47;18.67;;;9.90;;
54883;SDS011;40776;52.880;6.016;2022-11-20T10:07:25;20.50;;;10.32;;
54883;SDS011;40776;52.880;6.016;2022-11-20T10:09:54;17.08;;;9.63;;
54883;SDS011;40776;52.880;6.016;2022-11-20T10:23:19;17.58;;;9.35;;
54883;SDS011;40776;52.880;6.016;2022-11-20T10:31:07;16.25;;;9.07;;
54883;SDS011;40776;52.880;6.016;2022-11-20T10:33:41;14.48;;;9.15;;
54883;SDS011;40776;52.880;6.016;2022-11-20T10:36:12;16.25;;;8.82;;
54883;SDS011;40776;52.880;6.016;2022-11-20T10:38:42;16.55;;;8.75;;
54883;SDS011;40776;52.880;6.016;2022-11-20T10:41:12;13.90;;;8.73;;
54883;SDS011;40776;52.880;6.016;2022-11-20T10:43:59;14.93;;;8.60;;
54883;SDS011;40776;52.880;6.016;2022-11-20T10:46:29;14.60;;;8.05;;
54883;SDS011;40776;52.880;6.016;2022-11-20T10:48:58;15.20;;;9.32;;
54883;SDS011;40776;52.880;6.016;2022-11-20T10:51:31;16.08;;;9.25;;
54883;SDS011;40776;52.880;6.016;2022-11-20T10:56:39;17.17;;;8.43;;
54883;SDS011;40776;52.880;6.016;2022-11-20T10:59:26;15.75;;;8.63;;
54883;SDS011;40776;52.880;6.016;2022-11-20T11:01:54;14.43;;;8.85;;
54883;SDS011;40776;52.880;6.016;2022-11-20T11:06:58;14.65;;;9.52;;
54883;SDS011;40776;52.880;6.016;2022-11-20T11:09:31;14.45;;;8.52;;
54883;SDS011;40776;52.880;6.016;2022-11-20T11:11:58;15.43;;;9.02;;
54883;SDS011;40776;52.880;6.016;2022-11-20T11:14:24;14.15;;;8.75;;
54883;SDS011;40776;52.880;6.016;2022-11-20T11:16:51;14.93;;;8.38;;
54883;SDS011;40776;52.880;6.016;2022-11-20T11:19:17;15.07;;;8.85;;
54883;SDS011;40776;52.880;6.016;2022-11-20T11:21:47;14.60;;;8.57;;
54883;SDS011;40776;52.880;6.016;2022-11-20T11:24:21;14.32;;;8.82;;
54883;SDS011;40776;52.880;6.016;2022-11-20T11:26:57;17.05;;;8.65;;
54883;SDS011;40776;52.880;6.016;2022-11-20T11:29:24;15.10;;;8.50;;
54883;SDS011;40776;52.880;6.016;2022-11-20T11:32:07;13.32;;;7.93;;
54883;SDS011;40776;52.880;6.016;2022-11-20T11:34:33;18.15;;;8.25;;
54883;SDS011;40776;52.880;6.016;2022-11-20T11:37:00;15.98;;;8.73;;
54883;SDS011;40776;52.880;6.016;2022-11-20T11:39:27;14.95;;;8.57;;
54883;SDS011;40776;52.880;6.016;2022-11-20T11:41:54;13.77;;;7.80;;
54883;SDS011;40776;52.880;6.016;2022-11-20T11:44:30;12.80;;;7.82;;
54883;SDS011;40776;52.880;6.016;2022-11-20T11:47:25;12.25;;;7.70;;
54883;SDS011;40776;52.880;6.016;2022-11-20T12:01:00;13.38;;;7.45;;
54883;SDS011;40776;52.880;6.016;2022-11-20T12:03:29;14.80;;;8.40;;
54883;SDS011;40776;52.880;6.016;2022-11-20T12:09:01;14.20;;;8.52;;
54883;SDS011;40776;52.880;6.016;2022-11-20T12:14:49;12.75;;;7.72;;
54883;SDS011;40776;52.880;6.016;2022-11-20T12:16:58;14.55;;;7.50;;
54883;SDS011;40776;52.880;6.016;2022-11-20T12:19:25;13.20;;;7.72;;
54883;SDS011;40776;52.880;6.016;2022-11-20T12:24:52;11.85;;;6.68;;
54883;SDS011;40776;52.880;6.016;2022-11-20T12:27:28;11.38;;;7.35;;
54883;SDS011;40776;52.880;6.016;2022-11-20T12:30:00;14.52;;;7.95;;
54883;SDS011;40776;52.880;6.016;2022-11-20T12:32:44;13.30;;;8.43;;
54883;SDS011;40776;52.880;6.016;2022-11-20T12:41:26;13.60;;;7.88;;
54883;SDS011;40776;52.880;6.016;2022-11-20T12:47:16;12.27;;;6.90;;
54883;SDS011;40776;52.880;6.016;2022-11-20T12:49:51;10.82;;;6.95;;
54883;SDS011;40776;52.880;6.016;2022-11-20T12:58:05;13.90;;;8.18;;
54883;SDS011;40776;52.880;6.016;2022-11-20T13:00:34;12.27;;;7.05;;
54883;SDS011;40776;52.880;6.016;2022-11-20T13:03:06;14.02;;;7.30;;
54883;SDS011;40776;52.880;6.016;2022-11-20T13:08:15;10.93;;;7.00;;
54883;SDS011;40776;52.880;6.016;2022-11-20T13:11:27;11.75;;;7.68;;
54883;SDS011;40776;52.880;6.016;2022-11-20T13:16:07;11.90;;;7.13;;
54883;SDS011;40776;52.880;6.016;2022-11-20T13:18:37;12.38;;;7.30;;
54883;SDS011;40776;52.880;6.016;2022-11-20T13:21:21;12.02;;;6.90;;
54883;SDS011;40776;52.880;6.016;2022-11-20T13:23:47;11.50;;;7.00;;
54883;SDS011;40776;52.880;6.016;2022-11-20T13:26:17;12.32;;;7.75;;
54883;SDS011;40776;52.880;6.016;2022-11-20T13:28:45;11.48;;;6.70;;
54883;SDS011;40776;52.880;6.016;2022-11-20T13:31:34;11.88;;;7.43;;
54883;SDS011;40776;52.880;6.016;2022-11-20T13:33:58;13.20;;;7.90;;
54883;SDS011;40776;52.880;6.016;2022-11-20T13:36:27;13.10;;;8.23;;
54883;SDS011;40776;52.880;6.016;2022-11-20T13:38:54;11.80;;;7.30;;
54883;SDS011;40776;52.880;6.016;2022-11-20T13:41:25;11.40;;;7.18;;
54883;SDS011;40776;52.880;6.016;2022-11-20T13:46:38;13.63;;;7.88;;
54883;SDS011;40776;52.880;6.016;2022-11-20T13:49:10;11.68;;;7.50;;
54883;SDS011;40776;52.880;6.016;2022-11-20T13:51:49;13.05;;;7.78;;
54883;SDS011;40776;52.880;6.016;2022-11-20T13:59:44;15.35;;;8.40;;
54883;SDS011;40776;52.880;6.016;2022-11-20T14:02:13;13.18;;;8.02;;
54883;SDS011;40776;52.880;6.016;2022-11-20T14:04:42;15.05;;;8.70;;
54883;SDS011;40776;52.880;6.016;2022-11-20T14:07:09;13.57;;;8.02;;
54883;SDS011;40776;52.880;6.016;2022-11-20T14:09:35;13.55;;;8.20;;
54883;SDS011;40776;52.880;6.016;2022-11-20T14:12:02;13.45;;;7.75;;
54883;SDS011;40776;52.880;6.016;2022-11-20T14:14:29;12.13;;;7.72;;
54883;SDS011;40776;52.880;6.016;2022-11-20T14:19:43;13.40;;;8.23;;
54883;SDS011;40776;52.880;6.016;2022-11-20T14:22:23;14.27;;;8.07;;
54883;SDS011;40776;52.880;6.016;2022-11-20T14:25:00;15.25;;;7.95;;
54883;SDS011;40776;52.880;6.016;2022-11-20T14:27:26;13.90;;;8.40;;
54883;SDS011;40776;52.880;6.016;2022-11-20T14:29:53;14.25;;;8.23;;
54883;SDS011;40776;52.880;6.016;2022-11-20T14:32:28;14.70;;;8.48;;
54883;SDS011;40776;52.880;6.016;2022-11-20T14:34:54;12.48;;;7.65;;
54883;SDS011;40776;52.880;6.016;2022-11-20T14:37:24;14.75;;;9.20;;
54883;SDS011;40776;52.880;6.016;2022-11-20T14:39:54;14.55;;;8.50;;
54883;SDS011;40776;52.880;6.016;2022-11-20T14:42:27;14.77;;;8.45;;
54883;SDS011;40776;52.880;6.016;2022-11-20T14:44:57;14.75;;;8.98;;
54883;SDS011;40776;52.880;6.016;2022-11-20T14:47:25;14.88;;;9.25;;
54883;SDS011;40776;52.880;6.016;2022-11-20T14:49:51;14.82;;;8.27;;
54883;SDS011;40776;52.880;6.016;2022-11-20T14:52:19;15.85;;;9.30;;
54883;SDS011;40776;52.880;6.016;2022-11-20T14:54:49;13.02;;;8.45;;
54883;SDS011;40776;52.880;6.016;2022-11-20T14:57:21;16.33;;;9.15;;
54883;SDS011;40776;52.880;6.016;2022-11-20T14:59:47;15.10;;;9.05;;
54883;SDS011;40776;52.880;6.016;2022-11-20T15:02:13;15.27;;;8.88;;
54883;SDS011;40776;52.880;6.016;2022-11-20T15:04:49;17.00;;;9.43;;
54883;SDS011;40776;52.880;6.016;2022-11-20T15:07:23;18.55;;;10.05;;
54883;SDS011;40776;52.880;6.016;2022-11-20T15:09:59;16.92;;;10.00;;
54883;SDS011;40776;52.880;6.016;2022-11-20T15:12:26;15.43;;;9.88;;
54883;SDS011;40776;52.880;6.016;2022-11-20T15:14:52;16.80;;;9.55;;
54883;SDS011;40776;52.880;6.016;2022-11-20T15:17:18;17.33;;;9.52;;
54883;SDS011;40776;52.880;6.016;2022-11-20T15:19:44;16.98;;;9.75;;
54883;SDS011;40776;52.880;6.016;2022-11-20T15:22:11;15.55;;;9.45;;
54883;SDS011;40776;52.880;6.016;2022-11-20T15:24:38;18.90;;;10.73;;
54883;SDS011;40776;52.880;6.016;2022-11-20T15:27:04;17.15;;;10.13;;
54883;SDS011;40776;52.880;6.016;2022-11-20T15:29:30;16.50;;;9.57;;
54883;SDS011;40776;52.880;6.016;2022-11-20T15:31:56;15.98;;;9.88;;
54883;SDS011;40776;52.880;6.016;2022-11-20T15:34:22;17.23;;;10.48;;
54883;SDS011;40776;52.880;6.016;2022-11-20T15:36:49;18.50;;;10.15;;
54883;SDS011;40776;52.880;6.016;2022-11-20T15:39:15;16.73;;;9.82;;
54883;SDS011;40776;52.880;6.016;2022-11-20T15:41:41;18.10;;;10.40;;
54883;SDS011;40776;52.880;6.016;2022-11-20T15:44:07;16.65;;;9.88;;
54883;SDS011;40776;52.880;6.016;2022-11-20T15:46:35;15.93;;;9.48;;
54883;SDS011;40776;52.880;6.016;2022-11-20T15:49:03;15.38;;;9.75;;
54883;SDS011;40776;52.880;6.016;2022-11-20T15:51:30;17.40;;;9.68;;
54883;SDS011;40776;52.880;6.016;2022-11-20T15:53:57;18.63;;;10.30;;
54883;SDS011;40776;52.880;6.016;2022-11-20T15:56:24;17.27;;;9.50;;
54883;SDS011;40776;52.880;6.016;2022-11-20T15:58:50;15.70;;;10.13;;
54883;SDS011;40776;52.880;6.016;2022-11-20T16:01:20;19.80;;;11.35;;
54883;SDS011;40776;52.880;6.016;2022-11-20T16:03:46;19.10;;;10.30;;
54883;SDS011;40776;52.880;6.016;2022-11-20T16:06:12;17.08;;;10.45;;
54883;SDS011;40776;52.880;6.016;2022-11-20T16:08:38;17.05;;;10.38;;
54883;SDS011;40776;52.880;6.016;2022-11-20T16:11:05;16.48;;;9.77;;